sensor_id;sensor_type;location;lat;lon;timestamp;P1;durP1;ratioP1;P2;durP2;ratioP2
54125;SDS011;40360;52.992;6.796;2023-07-13T00:01:51;6.53;;;2.75;;
54125;SDS011;40360;52.992;6.796;2023-07-13T00:04:17;5.63;;;2.35;;
54125;SDS011;40360;52.992;6.796;2023-07-13T00:06:44;8.00;;;2.40;;
54125;SDS011;40360;52.992;6.796;2023-07-13T00:09:14;8.10;;;2.78;;
54125;SDS011;40360;52.992;6.796;2023-07-13T00:11:41;9.38;;;3.15;;
54125;SDS011;40360;52.992;6.796;2023-07-13T00:14:08;11.32;;;3.22;;
54125;SDS011;40360;52.992;6.796;2023-07-13T00:16:34;11.85;;;3.17;;
54125;SDS011;40360;52.992;6.796;2023-07-13T00:19:01;8.75;;;2.92;;
54125;SDS011;40360;52.992;6.796;2023-07-13T00:21:27;11.52;;;3.42;;
54125;SDS011;40360;52.992;6.796;2023-07-13T00:23:52;10.38;;;3.15;;
54125;SDS011;40360;52.992;6.796;2023-07-13T00:26:18;14.20;;;4.10;;
54125;SDS011;40360;52.992;6.796;2023-07-13T00:28:44;13.80;;;3.58;;
54125;SDS011;40360;52.992;6.796;2023-07-13T00:31:10;9.65;;;3.15;;
54125;SDS011;40360;52.992;6.796;2023-07-13T00:33:37;8.02;;;2.85;;
54125;SDS011;40360;52.992;6.796;2023-07-13T00:36:03;9.10;;;3.13;;
54125;SDS011;40360;52.992;6.796;2023-07-13T00:38:29;11.45;;;3.03;;
54125;SDS011;40360;52.992;6.796;2023-07-13T00:40:55;12.18;;;3.97;;
54125;SDS011;40360;52.992;6.796;2023-07-13T00:43:21;8.50;;;3.17;;
54125;SDS011;40360;52.992;6.796;2023-07-13T00:48:21;11.02;;;3.50;;
54125;SDS011;40360;52.992;6.796;2023-07-13T00:50:53;12.50;;;3.15;;
54125;SDS011;40360;52.992;6.796;2023-07-13T00:53:21;11.60;;;3.97;;
54125;SDS011;40360;52.992;6.796;2023-07-13T00:55:49;8.60;;;2.88;;
54125;SDS011;40360;52.992;6.796;2023-07-13T00:58:15;8.23;;;2.85;;
54125;SDS011;40360;52.992;6.796;2023-07-13T01:00:41;11.10;;;3.22;;
54125;SDS011;40360;52.992;6.796;2023-07-13T01:03:07;10.90;;;3.53;;
54125;SDS011;40360;52.992;6.796;2023-07-13T01:05:33;11.75;;;3.85;;
54125;SDS011;40360;52.992;6.796;2023-07-13T01:08:00;9.90;;;3.50;;
54125;SDS011;40360;52.992;6.796;2023-07-13T01:10:29;11.82;;;3.60;;
54125;SDS011;40360;52.992;6.796;2023-07-13T01:13:03;11.02;;;3.35;;
54125;SDS011;40360;52.992;6.796;2023-07-13T01:18:17;9.77;;;3.13;;
54125;SDS011;40360;52.992;6.796;2023-07-13T01:23:31;9.82;;;3.10;;
54125;SDS011;40360;52.992;6.796;2023-07-13T01:25:57;7.32;;;2.95;;
54125;SDS011;40360;52.992;6.796;2023-07-13T01:28:24;14.27;;;4.00;;
54125;SDS011;40360;52.992;6.796;2023-07-13T01:30:54;13.18;;;3.20;;
54125;SDS011;40360;52.992;6.796;2023-07-13T01:33:21;11.27;;;3.17;;
54125;SDS011;40360;52.992;6.796;2023-07-13T01:35:47;8.40;;;3.10;;
54125;SDS011;40360;52.992;6.796;2023-07-13T01:38:17;11.98;;;3.60;;
54125;SDS011;40360;52.992;6.796;2023-07-13T01:40:45;10.40;;;3.17;;
54125;SDS011;40360;52.992;6.796;2023-07-13T01:43:11;12.88;;;3.28;;
54125;SDS011;40360;52.992;6.796;2023-07-13T01:45:38;8.45;;;3.40;;
54125;SDS011;40360;52.992;6.796;2023-07-13T01:48:03;8.10;;;3.40;;
54125;SDS011;40360;52.992;6.796;2023-07-13T01:50:32;7.88;;;3.00;;
54125;SDS011;40360;52.992;6.796;2023-07-13T01:52:58;9.60;;;3.40;;
54125;SDS011;40360;52.992;6.796;2023-07-13T01:55:24;20.90;;;3.83;;
54125;SDS011;40360;52.992;6.796;2023-07-13T01:57:53;10.65;;;3.40;;
54125;SDS011;40360;52.992;6.796;2023-07-13T02:00:19;12.82;;;3.13;;
54125;SDS011;40360;52.992;6.796;2023-07-13T02:02:44;9.68;;;3.25;;
54125;SDS011;40360;52.992;6.796;2023-07-13T02:05:10;13.48;;;3.67;;
54125;SDS011;40360;52.992;6.796;2023-07-13T02:07:37;14.93;;;4.18;;
54125;SDS011;40360;52.992;6.796;2023-07-13T02:10:03;10.85;;;3.83;;
54125;SDS011;40360;52.992;6.796;2023-07-13T02:12:30;10.35;;;3.55;;
54125;SDS011;40360;52.992;6.796;2023-07-13T02:14:56;13.77;;;3.78;;
54125;SDS011;40360;52.992;6.796;2023-07-13T02:17:22;10.68;;;3.60;;
54125;SDS011;40360;52.992;6.796;2023-07-13T02:19:47;11.13;;;3.50;;
54125;SDS011;40360;52.992;6.796;2023-07-13T02:22:13;12.65;;;3.60;;
54125;SDS011;40360;52.992;6.796;2023-07-13T02:24:39;10.40;;;3.50;;
54125;SDS011;40360;52.992;6.796;2023-07-13T02:27:05;11.90;;;3.55;;
54125;SDS011;40360;52.992;6.796;2023-07-13T02:29:31;14.35;;;3.97;;
54125;SDS011;40360;52.992;6.796;2023-07-13T02:31:57;9.80;;;3.35;;
54125;SDS011;40360;52.992;6.796;2023-07-13T02:34:23;12.75;;;4.18;;
54125;SDS011;40360;52.992;6.796;2023-07-13T02:36:48;11.27;;;3.72;;
54125;SDS011;40360;52.992;6.796;2023-07-13T02:39:14;15.77;;;4.05;;
54125;SDS011;40360;52.992;6.796;2023-07-13T02:41:40;10.55;;;3.78;;
54125;SDS011;40360;52.992;6.796;2023-07-13T02:44:06;13.98;;;4.03;;
54125;SDS011;40360;52.992;6.796;2023-07-13T02:46:34;8.07;;;3.22;;
54125;SDS011;40360;52.992;6.796;2023-07-13T02:49:01;11.45;;;3.80;;
54125;SDS011;40360;52.992;6.796;2023-07-13T02:51:27;9.55;;;3.30;;
54125;SDS011;40360;52.992;6.796;2023-07-13T02:53:53;12.00;;;3.75;;
54125;SDS011;40360;52.992;6.796;2023-07-13T02:56:22;9.73;;;3.88;;
54125;SDS011;40360;52.992;6.796;2023-07-13T02:58:49;10.00;;;3.97;;
54125;SDS011;40360;52.992;6.796;2023-07-13T03:01:15;12.00;;;3.60;;
54125;SDS011;40360;52.992;6.796;2023-07-13T03:03:43;15.73;;;4.22;;
54125;SDS011;40360;52.992;6.796;2023-07-13T03:06:10;14.40;;;3.67;;
54125;SDS011;40360;52.992;6.796;2023-07-13T03:08:37;11.02;;;3.03;;
54125;SDS011;40360;52.992;6.796;2023-07-13T03:11:06;12.93;;;4.03;;
54125;SDS011;40360;52.992;6.796;2023-07-13T03:13:36;13.00;;;3.83;;
54125;SDS011;40360;52.992;6.796;2023-07-13T03:16:03;9.70;;;3.42;;
54125;SDS011;40360;52.992;6.796;2023-07-13T03:18:29;13.23;;;4.30;;
54125;SDS011;40360;52.992;6.796;2023-07-13T03:20:55;9.25;;;3.60;;
54125;SDS011;40360;52.992;6.796;2023-07-13T03:23:21;12.50;;;3.47;;
54125;SDS011;40360;52.992;6.796;2023-07-13T03:25:47;13.00;;;3.47;;
54125;SDS011;40360;52.992;6.796;2023-07-13T03:28:13;12.30;;;4.05;;
54125;SDS011;40360;52.992;6.796;2023-07-13T03:30:39;9.63;;;3.75;;
54125;SDS011;40360;52.992;6.796;2023-07-13T03:33:06;15.55;;;3.63;;
54125;SDS011;40360;52.992;6.796;2023-07-13T03:35:32;11.48;;;4.07;;
54125;SDS011;40360;52.992;6.796;2023-07-13T03:37:59;12.27;;;3.35;;
54125;SDS011;40360;52.992;6.796;2023-07-13T03:40:25;15.35;;;4.25;;
54125;SDS011;40360;52.992;6.796;2023-07-13T03:42:52;11.63;;;4.00;;
54125;SDS011;40360;52.992;6.796;2023-07-13T03:45:18;13.25;;;3.75;;
54125;SDS011;40360;52.992;6.796;2023-07-13T03:47:44;13.93;;;4.22;;
54125;SDS011;40360;52.992;6.796;2023-07-13T03:50:10;13.70;;;4.90;;
54125;SDS011;40360;52.992;6.796;2023-07-13T03:52:36;14.88;;;3.78;;
54125;SDS011;40360;52.992;6.796;2023-07-13T03:55:02;9.98;;;3.55;;
54125;SDS011;40360;52.992;6.796;2023-07-13T03:57:28;14.88;;;4.10;;
54125;SDS011;40360;52.992;6.796;2023-07-13T03:59:54;13.05;;;3.97;;
54125;SDS011;40360;52.992;6.796;2023-07-13T04:02:20;9.55;;;4.22;;
54125;SDS011;40360;52.992;6.796;2023-07-13T04:04:46;10.25;;;4.05;;
54125;SDS011;40360;52.992;6.796;2023-07-13T04:07:12;15.75;;;3.80;;
54125;SDS011;40360;52.992;6.796;2023-07-13T04:09:38;13.05;;;4.55;;
54125;SDS011;40360;52.992;6.796;2023-07-13T04:12:04;12.52;;;3.65;;
54125;SDS011;40360;52.992;6.796;2023-07-13T04:14:30;18.23;;;5.20;;
54125;SDS011;40360;52.992;6.796;2023-07-13T04:16:56;10.77;;;4.03;;
54125;SDS011;40360;52.992;6.796;2023-07-13T04:19:22;12.65;;;5.22;;
54125;SDS011;40360;52.992;6.796;2023-07-13T04:21:48;13.35;;;3.78;;
54125;SDS011;40360;52.992;6.796;2023-07-13T04:24:14;12.85;;;4.35;;
54125;SDS011;40360;52.992;6.796;2023-07-13T04:26:39;13.93;;;3.80;;
54125;SDS011;40360;52.992;6.796;2023-07-13T04:29:06;10.73;;;4.15;;
54125;SDS011;40360;52.992;6.796;2023-07-13T04:31:32;14.43;;;4.53;;
54125;SDS011;40360;52.992;6.796;2023-07-13T04:33:58;13.80;;;4.70;;
54125;SDS011;40360;52.992;6.796;2023-07-13T04:36:24;12.00;;;4.05;;
54125;SDS011;40360;52.992;6.796;2023-07-13T04:38:52;15.90;;;4.82;;
54125;SDS011;40360;52.992;6.796;2023-07-13T04:41:19;12.57;;;4.18;;
54125;SDS011;40360;52.992;6.796;2023-07-13T04:43:47;10.57;;;4.22;;
54125;SDS011;40360;52.992;6.796;2023-07-13T04:46:15;8.35;;;4.10;;
54125;SDS011;40360;52.992;6.796;2023-07-13T04:48:43;14.50;;;4.07;;
54125;SDS011;40360;52.992;6.796;2023-07-13T04:51:09;11.43;;;4.10;;
54125;SDS011;40360;52.992;6.796;2023-07-13T04:53:34;22.05;;;4.50;;
54125;SDS011;40360;52.992;6.796;2023-07-13T04:56:00;13.10;;;5.13;;
54125;SDS011;40360;52.992;6.796;2023-07-13T04:58:27;13.82;;;4.35;;
54125;SDS011;40360;52.992;6.796;2023-07-13T05:00:53;12.02;;;5.05;;
54125;SDS011;40360;52.992;6.796;2023-07-13T05:03:24;15.50;;;4.65;;
54125;SDS011;40360;52.992;6.796;2023-07-13T05:05:56;11.80;;;4.75;;
54125;SDS011;40360;52.992;6.796;2023-07-13T05:08:24;9.23;;;3.70;;
54125;SDS011;40360;52.992;6.796;2023-07-13T05:10:50;11.57;;;4.75;;
54125;SDS011;40360;52.992;6.796;2023-07-13T05:13:16;14.55;;;5.20;;
54125;SDS011;40360;52.992;6.796;2023-07-13T05:15:43;14.32;;;4.55;;
54125;SDS011;40360;52.992;6.796;2023-07-13T05:18:08;15.60;;;4.90;;
54125;SDS011;40360;52.992;6.796;2023-07-13T05:20:34;11.65;;;4.00;;
54125;SDS011;40360;52.992;6.796;2023-07-13T05:23:00;9.90;;;4.65;;
54125;SDS011;40360;52.992;6.796;2023-07-13T05:25:25;10.43;;;4.35;;
54125;SDS011;40360;52.992;6.796;2023-07-13T05:27:51;14.77;;;4.60;;
54125;SDS011;40360;52.992;6.796;2023-07-13T05:30:17;19.38;;;5.22;;
54125;SDS011;40360;52.992;6.796;2023-07-13T05:32:43;12.45;;;4.20;;
54125;SDS011;40360;52.992;6.796;2023-07-13T05:35:09;13.48;;;5.85;;
54125;SDS011;40360;52.992;6.796;2023-07-13T05:37:34;12.50;;;4.85;;
54125;SDS011;40360;52.992;6.796;2023-07-13T05:40:02;8.52;;;3.25;;
54125;SDS011;40360;52.992;6.796;2023-07-13T05:42:29;15.38;;;5.10;;
54125;SDS011;40360;52.992;6.796;2023-07-13T06:01:52;10.02;;;4.75;;
54125;SDS011;40360;52.992;6.796;2023-07-13T06:04:18;8.88;;;5.05;;
54125;SDS011;40360;52.992;6.796;2023-07-13T06:06:45;12.20;;;4.00;;
54125;SDS011;40360;52.992;6.796;2023-07-13T06:09:10;11.93;;;4.60;;
54125;SDS011;40360;52.992;6.796;2023-07-13T06:11:36;13.77;;;3.90;;
54125;SDS011;40360;52.992;6.796;2023-07-13T06:14:02;11.52;;;4.20;;
54125;SDS011;40360;52.992;6.796;2023-07-13T06:16:29;8.10;;;3.60;;
54125;SDS011;40360;52.992;6.796;2023-07-13T06:18:55;11.57;;;4.20;;
54125;SDS011;40360;52.992;6.796;2023-07-13T06:21:21;9.63;;;3.75;;
54125;SDS011;40360;52.992;6.796;2023-07-13T06:23:49;11.50;;;4.60;;
54125;SDS011;40360;52.992;6.796;2023-07-13T06:26:16;9.98;;;4.40;;
54125;SDS011;40360;52.992;6.796;2023-07-13T06:28:45;12.95;;;4.32;;
54125;SDS011;40360;52.992;6.796;2023-07-13T06:31:12;10.50;;;3.30;;
54125;SDS011;40360;52.992;6.796;2023-07-13T06:33:38;12.25;;;4.70;;
54125;SDS011;40360;52.992;6.796;2023-07-13T06:36:05;12.02;;;4.50;;
54125;SDS011;40360;52.992;6.796;2023-07-13T06:38:32;8.57;;;3.70;;
54125;SDS011;40360;52.992;6.796;2023-07-13T06:40:59;9.23;;;3.20;;
54125;SDS011;40360;52.992;6.796;2023-07-13T06:43:25;7.93;;;3.38;;
54125;SDS011;40360;52.992;6.796;2023-07-13T06:45:51;11.02;;;3.97;;
54125;SDS011;40360;52.992;6.796;2023-07-13T06:48:19;12.65;;;4.65;;
54125;SDS011;40360;52.992;6.796;2023-07-13T06:50:45;12.43;;;4.43;;
54125;SDS011;40360;52.992;6.796;2023-07-13T06:53:15;8.63;;;3.78;;
54125;SDS011;40360;52.992;6.796;2023-07-13T06:55:43;10.85;;;3.95;;
54125;SDS011;40360;52.992;6.796;2023-07-13T06:58:09;8.85;;;3.90;;
54125;SDS011;40360;52.992;6.796;2023-07-13T07:00:35;14.15;;;3.70;;
54125;SDS011;40360;52.992;6.796;2023-07-13T07:03:00;9.57;;;3.72;;
54125;SDS011;40360;52.992;6.796;2023-07-13T07:05:26;8.38;;;3.60;;
54125;SDS011;40360;52.992;6.796;2023-07-13T07:07:53;9.75;;;3.90;;
54125;SDS011;40360;52.992;6.796;2023-07-13T07:10:20;14.05;;;3.58;;
54125;SDS011;40360;52.992;6.796;2023-07-13T07:12:46;11.35;;;3.58;;
54125;SDS011;40360;52.992;6.796;2023-07-13T07:15:12;9.35;;;3.22;;
54125;SDS011;40360;52.992;6.796;2023-07-13T07:17:38;14.82;;;3.55;;
54125;SDS011;40360;52.992;6.796;2023-07-13T07:20:04;13.68;;;3.35;;
54125;SDS011;40360;52.992;6.796;2023-07-13T07:22:30;6.07;;;3.03;;
54125;SDS011;40360;52.992;6.796;2023-07-13T07:24:56;8.98;;;3.45;;
54125;SDS011;40360;52.992;6.796;2023-07-13T07:27:23;10.60;;;3.95;;
54125;SDS011;40360;52.992;6.796;2023-07-13T07:29:49;10.02;;;3.83;;
54125;SDS011;40360;52.992;6.796;2023-07-13T07:32:15;7.88;;;2.97;;
54125;SDS011;40360;52.992;6.796;2023-07-13T07:34:41;12.80;;;4.60;;
54125;SDS011;40360;52.992;6.796;2023-07-13T07:37:09;12.63;;;3.00;;
54125;SDS011;40360;52.992;6.796;2023-07-13T07:39:37;5.85;;;3.30;;
54125;SDS011;40360;52.992;6.796;2023-07-13T07:42:03;14.10;;;3.90;;
54125;SDS011;40360;52.992;6.796;2023-07-13T07:44:30;11.35;;;3.88;;
54125;SDS011;40360;52.992;6.796;2023-07-13T07:46:56;8.23;;;3.28;;
54125;SDS011;40360;52.992;6.796;2023-07-13T07:49:22;9.05;;;4.00;;
54125;SDS011;40360;52.992;6.796;2023-07-13T07:51:47;7.25;;;3.55;;
54125;SDS011;40360;52.992;6.796;2023-07-13T07:54:13;11.93;;;3.72;;
54125;SDS011;40360;52.992;6.796;2023-07-13T07:56:39;9.50;;;3.50;;
54125;SDS011;40360;52.992;6.796;2023-07-13T07:59:05;9.40;;;3.40;;
54125;SDS011;40360;52.992;6.796;2023-07-13T08:01:31;12.38;;;3.80;;
54125;SDS011;40360;52.992;6.796;2023-07-13T08:03:56;12.23;;;4.28;;
54125;SDS011;40360;52.992;6.796;2023-07-13T08:06:22;7.70;;;3.20;;
54125;SDS011;40360;52.992;6.796;2023-07-13T08:08:48;10.15;;;3.65;;
54125;SDS011;40360;52.992;6.796;2023-07-13T08:11:14;6.93;;;2.78;;
54125;SDS011;40360;52.992;6.796;2023-07-13T08:13:41;6.38;;;2.70;;
54125;SDS011;40360;52.992;6.796;2023-07-13T08:16:07;9.23;;;3.13;;
54125;SDS011;40360;52.992;6.796;2023-07-13T08:18:33;8.40;;;3.55;;
54125;SDS011;40360;52.992;6.796;2023-07-13T08:21:02;10.68;;;3.38;;
54125;SDS011;40360;52.992;6.796;2023-07-13T08:23:32;8.68;;;3.78;;
54125;SDS011;40360;52.992;6.796;2023-07-13T08:25:59;12.70;;;4.00;;
54125;SDS011;40360;52.992;6.796;2023-07-13T08:28:26;9.23;;;4.18;;
54125;SDS011;40360;52.992;6.796;2023-07-13T08:30:53;9.23;;;4.15;;
54125;SDS011;40360;52.992;6.796;2023-07-13T08:33:19;6.78;;;3.67;;
54125;SDS011;40360;52.992;6.796;2023-07-13T08:35:46;11.07;;;5.22;;
54125;SDS011;40360;52.992;6.796;2023-07-13T08:38:13;10.65;;;4.82;;
54125;SDS011;40360;52.992;6.796;2023-07-13T08:40:39;13.35;;;5.30;;
54125;SDS011;40360;52.992;6.796;2023-07-13T08:43:06;10.35;;;5.10;;
54125;SDS011;40360;52.992;6.796;2023-07-13T08:45:46;10.93;;;4.55;;
54125;SDS011;40360;52.992;6.796;2023-07-13T08:50:56;8.68;;;4.22;;
54125;SDS011;40360;52.992;6.796;2023-07-13T08:53:27;14.40;;;4.70;;
54125;SDS011;40360;52.992;6.796;2023-07-13T08:56:00;10.07;;;4.10;;
54125;SDS011;40360;52.992;6.796;2023-07-13T08:58:26;8.38;;;4.43;;
54125;SDS011;40360;52.992;6.796;2023-07-13T09:04:03;5.07;;;2.70;;
54125;SDS011;40360;52.992;6.796;2023-07-13T09:06:39;8.57;;;3.67;;
54125;SDS011;40360;52.992;6.796;2023-07-13T09:10:00;10.23;;;3.47;;
54125;SDS011;40360;52.992;6.796;2023-07-13T09:15:01;7.85;;;2.88;;
54125;SDS011;40360;52.992;6.796;2023-07-13T09:17:32;6.70;;;2.80;;
54125;SDS011;40360;52.992;6.796;2023-07-13T09:22:41;5.22;;;2.45;;
54125;SDS011;40360;52.992;6.796;2023-07-13T09:25:27;6.50;;;2.88;;
54125;SDS011;40360;52.992;6.796;2023-07-13T09:27:57;6.38;;;2.80;;
54125;SDS011;40360;52.992;6.796;2023-07-13T09:33:10;5.22;;;2.92;;
54125;SDS011;40360;52.992;6.796;2023-07-13T09:35:36;6.35;;;3.20;;
54125;SDS011;40360;52.992;6.796;2023-07-13T09:38:12;3.80;;;2.38;;
54125;SDS011;40360;52.992;6.796;2023-07-13T09:43:18;4.03;;;2.42;;
54125;SDS011;40360;52.992;6.796;2023-07-13T09:45:46;6.70;;;3.30;;
54125;SDS011;40360;52.992;6.796;2023-07-13T09:48:15;7.88;;;3.58;;
54125;SDS011;40360;52.992;6.796;2023-07-13T09:50:42;8.00;;;3.42;;
54125;SDS011;40360;52.992;6.796;2023-07-13T09:53:16;10.27;;;3.95;;
54125;SDS011;40360;52.992;6.796;2023-07-13T09:55:45;5.43;;;2.30;;
54125;SDS011;40360;52.992;6.796;2023-07-13T09:58:16;3.50;;;2.03;;
54125;SDS011;40360;52.992;6.796;2023-07-13T10:00:55;4.50;;;1.73;;
54125;SDS011;40360;52.992;6.796;2023-07-13T10:03:29;5.10;;;2.00;;
54125;SDS011;40360;52.992;6.796;2023-07-13T10:06:09;8.88;;;2.58;;
54125;SDS011;40360;52.992;6.796;2023-07-13T10:08:38;3.00;;;1.77;;
54125;SDS011;40360;52.992;6.796;2023-07-13T10:11:11;4.80;;;2.13;;
54125;SDS011;40360;52.992;6.796;2023-07-13T10:13:52;2.60;;;1.80;;
54125;SDS011;40360;52.992;6.796;2023-07-13T10:16:20;5.05;;;1.90;;
54125;SDS011;40360;52.992;6.796;2023-07-13T10:19:31;4.88;;;2.05;;
54125;SDS011;40360;52.992;6.796;2023-07-13T10:24:32;4.70;;;1.98;;
54125;SDS011;40360;52.992;6.796;2023-07-13T10:29:49;4.28;;;2.28;;
54125;SDS011;40360;52.992;6.796;2023-07-13T10:32:24;3.75;;;1.92;;
54125;SDS011;40360;52.992;6.796;2023-07-13T10:34:50;5.53;;;2.00;;
54125;SDS011;40360;52.992;6.796;2023-07-13T10:37:24;4.00;;;2.00;;
54125;SDS011;40360;52.992;6.796;2023-07-13T10:39:53;3.40;;;1.90;;
54125;SDS011;40360;52.992;6.796;2023-07-13T10:42:36;3.22;;;1.60;;
54125;SDS011;40360;52.992;6.796;2023-07-13T10:45:13;3.17;;;1.60;;
54125;SDS011;40360;52.992;6.796;2023-07-13T10:47:44;4.00;;;1.73;;
54125;SDS011;40360;52.992;6.796;2023-07-13T10:50:18;4.00;;;2.22;;
54125;SDS011;40360;52.992;6.796;2023-07-13T10:58:36;5.97;;;3.25;;
54125;SDS011;40360;52.992;6.796;2023-07-13T11:01:07;6.63;;;2.40;;
54125;SDS011;40360;52.992;6.796;2023-07-13T11:03:39;11.95;;;3.35;;
54125;SDS011;40360;52.992;6.796;2023-07-13T11:06:17;6.38;;;2.97;;
54125;SDS011;40360;52.992;6.796;2023-07-13T11:21:27;4.70;;;3.17;;
54125;SDS011;40360;52.992;6.796;2023-07-13T11:24:15;4.07;;;3.15;;
54125;SDS011;40360;52.992;6.796;2023-07-13T11:31:40;4.82;;;3.08;;
54125;SDS011;40360;52.992;6.796;2023-07-13T11:34:12;5.47;;;2.92;;
54125;SDS011;40360;52.992;6.796;2023-07-13T11:36:42;6.32;;;3.90;;
54125;SDS011;40360;52.992;6.796;2023-07-13T11:39:15;8.65;;;3.35;;
54125;SDS011;40360;52.992;6.796;2023-07-13T11:44:17;6.57;;;3.45;;
54125;SDS011;40360;52.992;6.796;2023-07-13T11:46:48;7.35;;;4.05;;
54125;SDS011;40360;52.992;6.796;2023-07-13T11:49:16;6.82;;;3.30;;
54125;SDS011;40360;52.992;6.796;2023-07-13T11:51:50;4.57;;;3.35;;
54125;SDS011;40360;52.992;6.796;2023-07-13T12:00:02;5.60;;;3.17;;
54125;SDS011;40360;52.992;6.796;2023-07-13T12:02:37;6.78;;;3.00;;
54125;SDS011;40360;52.992;6.796;2023-07-13T12:05:06;7.55;;;2.80;;
54125;SDS011;40360;52.992;6.796;2023-07-13T12:07:34;7.03;;;2.95;;
54125;SDS011;40360;52.992;6.796;2023-07-13T12:10:10;7.50;;;3.25;;
54125;SDS011;40360;52.992;6.796;2023-07-13T12:12:51;6.47;;;3.33;;
54125;SDS011;40360;52.992;6.796;2023-07-13T12:15:21;6.93;;;3.08;;
54125;SDS011;40360;52.992;6.796;2023-07-13T12:17:48;5.70;;;2.88;;
54125;SDS011;40360;52.992;6.796;2023-07-13T12:20:23;8.80;;;3.40;;
54125;SDS011;40360;52.992;6.796;2023-07-13T12:22:52;4.45;;;2.95;;
54125;SDS011;40360;52.992;6.796;2023-07-13T12:25:19;5.07;;;3.40;;
54125;SDS011;40360;52.992;6.796;2023-07-13T12:27:50;6.35;;;3.33;;
54125;SDS011;40360;52.992;6.796;2023-07-13T12:30:30;7.85;;;3.03;;
54125;SDS011;40360;52.992;6.796;2023-07-13T12:33:01;7.25;;;3.05;;
54125;SDS011;40360;52.992;6.796;2023-07-13T12:35:47;5.10;;;2.15;;
54125;SDS011;40360;52.992;6.796;2023-07-13T12:38:15;4.00;;;2.60;;
54125;SDS011;40360;52.992;6.796;2023-07-13T12:40:41;4.20;;;2.53;;
54125;SDS011;40360;52.992;6.796;2023-07-13T12:43:11;2.67;;;1.52;;
54125;SDS011;40360;52.992;6.796;2023-07-13T12:45:38;6.10;;;1.65;;
54125;SDS011;40360;52.992;6.796;2023-07-13T12:48:05;3.67;;;1.38;;
54125;SDS011;40360;52.992;6.796;2023-07-13T12:50:45;5.72;;;1.65;;
54125;SDS011;40360;52.992;6.796;2023-07-13T12:53:23;6.75;;;1.88;;
54125;SDS011;40360;52.992;6.796;2023-07-13T12:55:56;5.47;;;1.95;;
54125;SDS011;40360;52.992;6.796;2023-07-13T12:59:01;6.43;;;1.80;;
54125;SDS011;40360;52.992;6.796;2023-07-13T13:01:22;5.97;;;1.75;;
54125;SDS011;40360;52.992;6.796;2023-07-13T13:04:00;6.93;;;1.80;;
54125;SDS011;40360;52.992;6.796;2023-07-13T13:06:31;4.63;;;1.80;;
54125;SDS011;40360;52.992;6.796;2023-07-13T13:08:58;3.38;;;1.52;;
54125;SDS011;40360;52.992;6.796;2023-07-13T13:11:25;6.63;;;1.30;;
54125;SDS011;40360;52.992;6.796;2023-07-13T13:13:55;5.25;;;1.80;;
54125;SDS011;40360;52.992;6.796;2023-07-13T13:18:53;6.65;;;1.70;;
54125;SDS011;40360;52.992;6.796;2023-07-13T13:21:22;5.40;;;1.73;;
54125;SDS011;40360;52.992;6.796;2023-07-13T13:23:49;4.15;;;1.55;;
54125;SDS011;40360;52.992;6.796;2023-07-13T13:26:16;5.05;;;2.03;;
54125;SDS011;40360;52.992;6.796;2023-07-13T13:28:49;3.17;;;1.65;;
54125;SDS011;40360;52.992;6.796;2023-07-13T13:31:14;5.15;;;1.75;;
54125;SDS011;40360;52.992;6.796;2023-07-13T13:33:41;2.47;;;1.27;;
54125;SDS011;40360;52.992;6.796;2023-07-13T13:36:14;3.40;;;1.40;;
54125;SDS011;40360;52.992;6.796;2023-07-13T13:38:41;4.35;;;1.48;;
54125;SDS011;40360;52.992;6.796;2023-07-13T13:41:09;3.83;;;1.38;;
54125;SDS011;40360;52.992;6.796;2023-07-13T13:43:35;3.25;;;1.48;;
54125;SDS011;40360;52.992;6.796;2023-07-13T13:46:01;4.43;;;1.40;;
54125;SDS011;40360;52.992;6.796;2023-07-13T13:48:37;1.85;;;1.15;;
54125;SDS011;40360;52.992;6.796;2023-07-13T13:51:13;3.13;;;1.33;;
54125;SDS011;40360;52.992;6.796;2023-07-13T13:53:47;4.50;;;1.70;;
54125;SDS011;40360;52.992;6.796;2023-07-13T13:56:14;4.95;;;1.83;;
54125;SDS011;40360;52.992;6.796;2023-07-13T13:58:40;5.40;;;1.55;;
54125;SDS011;40360;52.992;6.796;2023-07-13T14:01:39;3.38;;;1.88;;
54125;SDS011;40360;52.992;6.796;2023-07-13T14:03:58;3.50;;;1.35;;
54125;SDS011;40360;52.992;6.796;2023-07-13T14:06:24;3.42;;;1.27;;
54125;SDS011;40360;52.992;6.796;2023-07-13T14:08:50;5.57;;;1.23;;
54125;SDS011;40360;52.992;6.796;2023-07-13T14:11:16;2.55;;;1.38;;
54125;SDS011;40360;52.992;6.796;2023-07-13T14:13:44;4.97;;;1.52;;
54125;SDS011;40360;52.992;6.796;2023-07-13T14:16:17;4.00;;;1.42;;
54125;SDS011;40360;52.992;6.796;2023-07-13T14:18:45;4.93;;;1.55;;
54125;SDS011;40360;52.992;6.796;2023-07-13T14:21:22;3.78;;;1.25;;
54125;SDS011;40360;52.992;6.796;2023-07-13T14:26:16;4.57;;;1.52;;
54125;SDS011;40360;52.992;6.796;2023-07-13T14:28:45;4.85;;;1.48;;
54125;SDS011;40360;52.992;6.796;2023-07-13T14:31:16;4.45;;;1.58;;
54125;SDS011;40360;52.992;6.796;2023-07-13T14:33:42;5.43;;;1.48;;
54125;SDS011;40360;52.992;6.796;2023-07-13T14:38:50;3.08;;;1.10;;
54125;SDS011;40360;52.992;6.796;2023-07-13T14:41:16;4.47;;;1.60;;
54125;SDS011;40360;52.992;6.796;2023-07-13T14:43:45;4.70;;;1.73;;
54125;SDS011;40360;52.992;6.796;2023-07-13T14:46:32;2.78;;;1.13;;
54125;SDS011;40360;52.992;6.796;2023-07-13T14:49:05;3.17;;;1.23;;
54125;SDS011;40360;52.992;6.796;2023-07-13T14:51:38;4.00;;;1.60;;
54125;SDS011;40360;52.992;6.796;2023-07-13T14:54:05;3.83;;;1.50;;
54125;SDS011;40360;52.992;6.796;2023-07-13T14:56:32;4.22;;;1.38;;
54125;SDS011;40360;52.992;6.796;2023-07-13T14:58:58;6.32;;;1.50;;
54125;SDS011;40360;52.992;6.796;2023-07-13T15:01:24;4.25;;;1.48;;
54125;SDS011;40360;52.992;6.796;2023-07-13T15:03:50;6.18;;;2.13;;
54125;SDS011;40360;52.992;6.796;2023-07-13T15:06:17;2.15;;;1.25;;
54125;SDS011;40360;52.992;6.796;2023-07-13T15:08:44;5.25;;;1.80;;
54125;SDS011;40360;52.992;6.796;2023-07-13T15:11:10;3.97;;;1.27;;
54125;SDS011;40360;52.992;6.796;2023-07-13T15:13:38;4.07;;;1.60;;
54125;SDS011;40360;52.992;6.796;2023-07-13T15:16:24;3.20;;;1.30;;
54125;SDS011;40360;52.992;6.796;2023-07-13T15:18:51;2.27;;;1.03;;
54125;SDS011;40360;52.992;6.796;2023-07-13T15:21:19;6.32;;;2.00;;
54125;SDS011;40360;52.992;6.796;2023-07-13T15:23:48;4.28;;;1.30;;
54125;SDS011;40360;52.992;6.796;2023-07-13T15:26:14;3.25;;;1.60;;
54125;SDS011;40360;52.992;6.796;2023-07-13T15:28:42;4.78;;;1.50;;
54125;SDS011;40360;52.992;6.796;2023-07-13T15:31:17;4.43;;;1.80;;
54125;SDS011;40360;52.992;6.796;2023-07-13T15:33:48;3.33;;;1.42;;
54125;SDS011;40360;52.992;6.796;2023-07-13T15:36:19;6.10;;;1.88;;
54125;SDS011;40360;52.992;6.796;2023-07-13T15:38:46;5.95;;;1.50;;
54125;SDS011;40360;52.992;6.796;2023-07-13T15:41:16;3.35;;;1.48;;
54125;SDS011;40360;52.992;6.796;2023-07-13T15:43:43;3.05;;;1.10;;
54125;SDS011;40360;52.992;6.796;2023-07-13T15:46:10;4.18;;;1.40;;
54125;SDS011;40360;52.992;6.796;2023-07-13T15:48:35;6.85;;;1.70;;
54125;SDS011;40360;52.992;6.796;2023-07-13T15:51:03;2.85;;;1.40;;
54125;SDS011;40360;52.992;6.796;2023-07-13T15:53:33;4.05;;;1.30;;
54125;SDS011;40360;52.992;6.796;2023-07-13T15:56:10;3.58;;;1.65;;
54125;SDS011;40360;52.992;6.796;2023-07-13T15:58:45;3.42;;;1.25;;
54125;SDS011;40360;52.992;6.796;2023-07-13T16:01:12;4.32;;;1.45;;
54125;SDS011;40360;52.992;6.796;2023-07-13T16:03:38;6.43;;;2.28;;
54125;SDS011;40360;52.992;6.796;2023-07-13T16:06:10;4.30;;;2.28;;
54125;SDS011;40360;52.992;6.796;2023-07-13T16:08:51;7.70;;;2.00;;
54125;SDS011;40360;52.992;6.796;2023-07-13T16:11:22;3.63;;;1.38;;
54125;SDS011;40360;52.992;6.796;2023-07-13T16:13:50;2.35;;;1.52;;
54125;SDS011;40360;52.992;6.796;2023-07-13T16:16:19;4.38;;;1.88;;
54125;SDS011;40360;52.992;6.796;2023-07-13T16:18:50;3.13;;;1.50;;